sensor_id;sensor_type;location;lat;lon;timestamp;P1;durP1;ratioP1;P2;durP2;ratioP2
42084;SDS011;27746;52.228;20.890;2023-12-20T00:00:29;27.67;;;17.00;;
42084;SDS011;27746;52.228;20.890;2023-12-20T00:02:56;29.73;;;15.73;;
42084;SDS011;27746;52.228;20.890;2023-12-20T00:05:24;31.90;;;16.60;;
42084;SDS011;27746;52.228;20.890;2023-12-20T00:07:50;28.10;;;16.58;;
42084;SDS011;27746;52.228;20.890;2023-12-20T00:10:17;27.20;;;16.23;;
42084;SDS011;27746;52.228;20.890;2023-12-20T00:12:44;25.00;;;16.52;;
42084;SDS011;27746;52.228;20.890;2023-12-20T00:15:11;25.75;;;16.88;;
42084;SDS011;27746;52.228;20.890;2023-12-20T00:17:39;26.80;;;16.75;;
42084;SDS011;27746;52.228;20.890;2023-12-20T00:20:06;27.52;;;16.67;;
42084;SDS011;27746;52.228;20.890;2023-12-20T00:22:34;26.88;;;15.88;;
42084;SDS011;27746;52.228;20.890;2023-12-20T00:25:01;24.52;;;14.93;;
42084;SDS011;27746;52.228;20.890;2023-12-20T00:27:27;25.85;;;16.13;;
42084;SDS011;27746;52.228;20.890;2023-12-20T00:29:54;28.65;;;17.08;;
42084;SDS011;27746;52.228;20.890;2023-12-20T00:32:21;24.05;;;16.00;;
42084;SDS011;27746;52.228;20.890;2023-12-20T00:34:49;25.48;;;14.10;;
42084;SDS011;27746;52.228;20.890;2023-12-20T00:37:16;28.65;;;17.65;;
42084;SDS011;27746;52.228;20.890;2023-12-20T00:39:43;24.40;;;15.88;;
42084;SDS011;27746;52.228;20.890;2023-12-20T00:42:10;24.88;;;15.93;;
42084;SDS011;27746;52.228;20.890;2023-12-20T00:44:36;24.20;;;15.35;;
42084;SDS011;27746;52.228;20.890;2023-12-20T00:47:03;25.63;;;15.50;;
42084;SDS011;27746;52.228;20.890;2023-12-20T00:49:30;26.65;;;14.25;;
42084;SDS011;27746;52.228;20.890;2023-12-20T00:51:58;26.60;;;15.75;;
42084;SDS011;27746;52.228;20.890;2023-12-20T00:54:25;25.85;;;16.35;;
42084;SDS011;27746;52.228;20.890;2023-12-20T00:56:52;24.90;;;15.57;;
42084;SDS011;27746;52.228;20.890;2023-12-20T00:59:19;26.20;;;15.75;;
42084;SDS011;27746;52.228;20.890;2023-12-20T01:01:46;23.52;;;14.85;;
42084;SDS011;27746;52.228;20.890;2023-12-20T01:04:13;24.92;;;15.45;;
42084;SDS011;27746;52.228;20.890;2023-12-20T01:06:39;22.67;;;15.15;;
42084;SDS011;27746;52.228;20.890;2023-12-20T01:09:08;25.42;;;14.98;;
42084;SDS011;27746;52.228;20.890;2023-12-20T01:11:34;25.98;;;14.52;;
42084;SDS011;27746;52.228;20.890;2023-12-20T01:14:01;26.27;;;15.63;;
42084;SDS011;27746;52.228;20.890;2023-12-20T01:16:28;26.17;;;14.50;;
42084;SDS011;27746;52.228;20.890;2023-12-20T01:18:55;22.52;;;14.57;;
42084;SDS011;27746;52.228;20.890;2023-12-20T01:21:22;23.35;;;14.15;;
42084;SDS011;27746;52.228;20.890;2023-12-20T01:23:50;22.00;;;13.90;;
42084;SDS011;27746;52.228;20.890;2023-12-20T01:26:18;24.00;;;15.30;;
42084;SDS011;27746;52.228;20.890;2023-12-20T01:28:45;22.88;;;14.57;;
42084;SDS011;27746;52.228;20.890;2023-12-20T01:31:12;23.15;;;14.40;;
42084;SDS011;27746;52.228;20.890;2023-12-20T01:33:39;23.75;;;14.27;;
42084;SDS011;27746;52.228;20.890;2023-12-20T01:36:06;21.67;;;13.30;;
42084;SDS011;27746;52.228;20.890;2023-12-20T01:38:32;23.92;;;13.63;;
42084;SDS011;27746;52.228;20.890;2023-12-20T01:40:59;21.27;;;13.82;;
42084;SDS011;27746;52.228;20.890;2023-12-20T01:43:27;19.50;;;13.05;;
42084;SDS011;27746;52.228;20.890;2023-12-20T01:45:55;21.63;;;13.45;;
42084;SDS011;27746;52.228;20.890;2023-12-20T01:48:23;19.00;;;13.15;;
42084;SDS011;27746;52.228;20.890;2023-12-20T01:50:51;20.35;;;12.93;;
42084;SDS011;27746;52.228;20.890;2023-12-20T01:53:18;20.85;;;12.93;;
42084;SDS011;27746;52.228;20.890;2023-12-20T01:55:47;19.52;;;12.40;;
42084;SDS011;27746;52.228;20.890;2023-12-20T01:58:16;20.65;;;12.90;;
42084;SDS011;27746;52.228;20.890;2023-12-20T02:00:45;19.35;;;12.88;;
42084;SDS011;27746;52.228;20.890;2023-12-20T02:03:13;19.00;;;12.73;;
42084;SDS011;27746;52.228;20.890;2023-12-20T02:05:40;18.50;;;12.27;;
42084;SDS011;27746;52.228;20.890;2023-12-20T02:08:07;19.38;;;13.63;;
42084;SDS011;27746;52.228;20.890;2023-12-20T02:10:34;18.25;;;11.55;;
42084;SDS011;27746;52.228;20.890;2023-12-20T02:13:01;18.95;;;11.95;;
42084;SDS011;27746;52.228;20.890;2023-12-20T02:15:27;19.08;;;10.55;;
42084;SDS011;27746;52.228;20.890;2023-12-20T02:17:57;12.85;;;9.05;;
42084;SDS011;27746;52.228;20.890;2023-12-20T02:20:23;15.90;;;10.52;;
42084;SDS011;27746;52.228;20.890;2023-12-20T02:22:51;17.42;;;11.07;;
42084;SDS011;27746;52.228;20.890;2023-12-20T02:25:18;17.20;;;10.48;;
42084;SDS011;27746;52.228;20.890;2023-12-20T02:27:45;14.68;;;9.30;;
42084;SDS011;27746;52.228;20.890;2023-12-20T02:30:12;13.20;;;8.57;;
42084;SDS011;27746;52.228;20.890;2023-12-20T02:32:39;13.52;;;8.77;;
42084;SDS011;27746;52.228;20.890;2023-12-20T02:35:06;13.23;;;8.45;;
42084;SDS011;27746;52.228;20.890;2023-12-20T02:37:33;13.15;;;7.22;;
42084;SDS011;27746;52.228;20.890;2023-12-20T02:40:01;13.48;;;7.13;;
42084;SDS011;27746;52.228;20.890;2023-12-20T02:42:29;9.95;;;5.82;;
42084;SDS011;27746;52.228;20.890;2023-12-20T02:44:56;9.05;;;5.53;;
42084;SDS011;27746;52.228;20.890;2023-12-20T02:47:23;8.60;;;5.15;;
42084;SDS011;27746;52.228;20.890;2023-12-20T02:49:49;9.73;;;5.28;;
42084;SDS011;27746;52.228;20.890;2023-12-20T02:52:17;7.55;;;5.00;;
42084;SDS011;27746;52.228;20.890;2023-12-20T02:54:44;8.98;;;5.55;;
42084;SDS011;27746;52.228;20.890;2023-12-20T02:57:12;9.68;;;5.28;;
42084;SDS011;27746;52.228;20.890;2023-12-20T02:59:39;7.53;;;4.78;;
42084;SDS011;27746;52.228;20.890;2023-12-20T03:02:06;7.72;;;4.82;;
42084;SDS011;27746;52.228;20.890;2023-12-20T03:04:33;7.40;;;4.88;;
42084;SDS011;27746;52.228;20.890;2023-12-20T03:07:00;8.63;;;4.90;;
42084;SDS011;27746;52.228;20.890;2023-12-20T03:09:26;7.15;;;4.50;;
42084;SDS011;27746;52.228;20.890;2023-12-20T03:11:53;9.40;;;4.97;;
42084;SDS011;27746;52.228;20.890;2023-12-20T03:14:21;8.48;;;4.78;;
42084;SDS011;27746;52.228;20.890;2023-12-20T03:16:48;8.05;;;5.20;;
42084;SDS011;27746;52.228;20.890;2023-12-20T03:19:16;6.50;;;4.28;;
42084;SDS011;27746;52.228;20.890;2023-12-20T03:21:43;6.75;;;3.72;;
42084;SDS011;27746;52.228;20.890;2023-12-20T03:24:10;5.90;;;3.60;;
42084;SDS011;27746;52.228;20.890;2023-12-20T03:26:37;7.35;;;4.13;;
42084;SDS011;27746;52.228;20.890;2023-12-20T03:29:04;5.93;;;3.78;;
42084;SDS011;27746;52.228;20.890;2023-12-20T03:31:32;6.10;;;3.83;;
42084;SDS011;27746;52.228;20.890;2023-12-20T03:33:59;6.70;;;3.95;;
42084;SDS011;27746;52.228;20.890;2023-12-20T03:36:26;6.95;;;4.28;;
42084;SDS011;27746;52.228;20.890;2023-12-20T03:38:52;6.60;;;3.85;;
42084;SDS011;27746;52.228;20.890;2023-12-20T03:41:19;6.93;;;4.20;;
42084;SDS011;27746;52.228;20.890;2023-12-20T03:43:46;7.57;;;4.55;;
42084;SDS011;27746;52.228;20.890;2023-12-20T03:46:13;9.02;;;4.68;;
42084;SDS011;27746;52.228;20.890;2023-12-20T03:48:41;7.30;;;4.68;;
42084;SDS011;27746;52.228;20.890;2023-12-20T03:51:08;7.53;;;4.45;;
42084;SDS011;27746;52.228;20.890;2023-12-20T03:53:34;8.55;;;4.55;;
42084;SDS011;27746;52.228;20.890;2023-12-20T03:56:01;9.30;;;4.50;;
42084;SDS011;27746;52.228;20.890;2023-12-20T03:58:28;6.63;;;4.35;;
42084;SDS011;27746;52.228;20.890;2023-12-20T04:00:55;7.38;;;4.80;;
42084;SDS011;27746;52.228;20.890;2023-12-20T04:03:22;9.10;;;5.93;;
42084;SDS011;27746;52.228;20.890;2023-12-20T04:05:50;12.15;;;6.10;;
42084;SDS011;27746;52.228;20.890;2023-12-20T04:08:17;9.75;;;5.78;;
42084;SDS011;27746;52.228;20.890;2023-12-20T04:10:44;11.55;;;6.63;;
42084;SDS011;27746;52.228;20.890;2023-12-20T04:13:11;11.40;;;6.75;;
42084;SDS011;27746;52.228;20.890;2023-12-20T04:15:37;11.52;;;7.43;;
42084;SDS011;27746;52.228;20.890;2023-12-20T04:18:04;10.38;;;6.80;;
42084;SDS011;27746;52.228;20.890;2023-12-20T04:20:31;10.93;;;8.05;;
42084;SDS011;27746;52.228;20.890;2023-12-20T04:22:59;13.60;;;8.13;;
42084;SDS011;27746;52.228;20.890;2023-12-20T04:25:26;13.05;;;7.97;;
42084;SDS011;27746;52.228;20.890;2023-12-20T04:27:53;12.65;;;8.88;;
42084;SDS011;27746;52.228;20.890;2023-12-20T04:30:20;12.75;;;8.75;;
42084;SDS011;27746;52.228;20.890;2023-12-20T04:32:46;15.52;;;9.02;;
42084;SDS011;27746;52.228;20.890;2023-12-20T04:35:13;14.38;;;8.73;;
42084;SDS011;27746;52.228;20.890;2023-12-20T04:37:40;13.90;;;8.25;;
42084;SDS011;27746;52.228;20.890;2023-12-20T04:40:09;14.05;;;8.57;;
42084;SDS011;27746;52.228;20.890;2023-12-20T04:42:36;14.43;;;8.90;;
42084;SDS011;27746;52.228;20.890;2023-12-20T04:45:03;14.70;;;9.52;;
42084;SDS011;27746;52.228;20.890;2023-12-20T04:47:31;12.35;;;8.23;;
42084;SDS011;27746;52.228;20.890;2023-12-20T04:49:57;16.23;;;9.23;;
42084;SDS011;27746;52.228;20.890;2023-12-20T04:52:25;13.93;;;8.52;;
42084;SDS011;27746;52.228;20.890;2023-12-20T04:54:51;13.90;;;8.82;;
42084;SDS011;27746;52.228;20.890;2023-12-20T04:57:20;16.02;;;9.35;;
42084;SDS011;27746;52.228;20.890;2023-12-20T04:59:46;15.63;;;8.90;;
42084;SDS011;27746;52.228;20.890;2023-12-20T05:02:14;16.17;;;10.05;;
42084;SDS011;27746;52.228;20.890;2023-12-20T05:04:41;13.80;;;8.88;;
42084;SDS011;27746;52.228;20.890;2023-12-20T05:07:08;17.27;;;10.70;;
42084;SDS011;27746;52.228;20.890;2023-12-20T05:09:35;14.60;;;9.27;;
42084;SDS011;27746;52.228;20.890;2023-12-20T05:12:02;18.00;;;9.35;;
42084;SDS011;27746;52.228;20.890;2023-12-20T05:14:30;16.83;;;9.15;;
42084;SDS011;27746;52.228;20.890;2023-12-20T05:16:57;17.85;;;10.30;;
42084;SDS011;27746;52.228;20.890;2023-12-20T05:19:24;16.63;;;9.90;;
42084;SDS011;27746;52.228;20.890;2023-12-20T05:21:51;17.15;;;10.73;;
42084;SDS011;27746;52.228;20.890;2023-12-20T05:24:18;16.00;;;9.95;;
42084;SDS011;27746;52.228;20.890;2023-12-20T05:26:45;16.17;;;10.85;;
42084;SDS011;27746;52.228;20.890;2023-12-20T05:29:12;15.00;;;9.68;;
42084;SDS011;27746;52.228;20.890;2023-12-20T05:31:40;16.50;;;9.98;;
42084;SDS011;27746;52.228;20.890;2023-12-20T05:34:07;14.45;;;9.70;;
42084;SDS011;27746;52.228;20.890;2023-12-20T05:36:34;18.10;;;10.23;;
42084;SDS011;27746;52.228;20.890;2023-12-20T05:39:01;17.23;;;10.60;;
42084;SDS011;27746;52.228;20.890;2023-12-20T05:41:29;17.65;;;10.20;;
42084;SDS011;27746;52.228;20.890;2023-12-20T05:43:56;15.90;;;10.20;;
42084;SDS011;27746;52.228;20.890;2023-12-20T05:46:24;16.10;;;10.02;;
42084;SDS011;27746;52.228;20.890;2023-12-20T05:48:52;16.20;;;9.30;;
42084;SDS011;27746;52.228;20.890;2023-12-20T05:51:19;18.02;;;10.05;;
42084;SDS011;27746;52.228;20.890;2023-12-20T05:53:46;16.98;;;9.90;;
42084;SDS011;27746;52.228;20.890;2023-12-20T05:56:14;15.43;;;9.70;;
42084;SDS011;27746;52.228;20.890;2023-12-20T05:58:41;17.85;;;10.48;;
42084;SDS011;27746;52.228;20.890;2023-12-20T06:01:08;15.93;;;9.60;;
42084;SDS011;27746;52.228;20.890;2023-12-20T06:03:35;16.02;;;9.50;;
42084;SDS011;27746;52.228;20.890;2023-12-20T06:06:05;17.80;;;9.23;;
42084;SDS011;27746;52.228;20.890;2023-12-20T06:08:33;15.75;;;9.55;;
42084;SDS011;27746;52.228;20.890;2023-12-20T06:10:59;16.92;;;9.15;;
42084;SDS011;27746;52.228;20.890;2023-12-20T06:13:26;16.77;;;10.00;;
42084;SDS011;27746;52.228;20.890;2023-12-20T06:15:53;15.82;;;9.27;;
42084;SDS011;27746;52.228;20.890;2023-12-20T06:18:21;16.08;;;8.80;;
42084;SDS011;27746;52.228;20.890;2023-12-20T06:20:49;14.38;;;8.98;;
42084;SDS011;27746;52.228;20.890;2023-12-20T06:23:17;14.52;;;8.40;;
42084;SDS011;27746;52.228;20.890;2023-12-20T06:25:44;14.93;;;8.35;;
42084;SDS011;27746;52.228;20.890;2023-12-20T06:28:11;15.48;;;9.43;;
42084;SDS011;27746;52.228;20.890;2023-12-20T06:30:39;16.33;;;9.38;;
42084;SDS011;27746;52.228;20.890;2023-12-20T06:33:06;12.88;;;8.07;;
42084;SDS011;27746;52.228;20.890;2023-12-20T06:35:35;11.73;;;8.55;;
42084;SDS011;27746;52.228;20.890;2023-12-20T06:38:01;14.32;;;8.35;;
42084;SDS011;27746;52.228;20.890;2023-12-20T06:40:30;14.25;;;8.30;;
42084;SDS011;27746;52.228;20.890;2023-12-20T06:42:57;14.68;;;8.40;;
42084;SDS011;27746;52.228;20.890;2023-12-20T06:45:24;15.13;;;8.82;;
42084;SDS011;27746;52.228;20.890;2023-12-20T06:47:51;15.85;;;9.35;;
42084;SDS011;27746;52.228;20.890;2023-12-20T06:50:19;16.30;;;8.57;;
42084;SDS011;27746;52.228;20.890;2023-12-20T06:52:46;15.40;;;9.30;;
42084;SDS011;27746;52.228;20.890;2023-12-20T06:55:13;15.00;;;10.15;;
42084;SDS011;27746;52.228;20.890;2023-12-20T06:57:41;15.93;;;10.10;;
42084;SDS011;27746;52.228;20.890;2023-12-20T07:00:08;16.35;;;9.75;;
42084;SDS011;27746;52.228;20.890;2023-12-20T07:02:38;16.58;;;10.38;;
42084;SDS011;27746;52.228;20.890;2023-12-20T07:05:05;16.05;;;10.25;;
42084;SDS011;27746;52.228;20.890;2023-12-20T07:07:32;16.63;;;9.82;;
42084;SDS011;27746;52.228;20.890;2023-12-20T07:10:00;18.15;;;10.07;;
42084;SDS011;27746;52.228;20.890;2023-12-20T07:12:26;16.33;;;10.30;;
42084;SDS011;27746;52.228;20.890;2023-12-20T07:14:55;17.25;;;10.35;;
42084;SDS011;27746;52.228;20.890;2023-12-20T07:17:22;19.35;;;10.65;;
42084;SDS011;27746;52.228;20.890;2023-12-20T07:19:48;16.70;;;9.80;;
42084;SDS011;27746;52.228;20.890;2023-12-20T07:22:15;14.65;;;9.43;;
42084;SDS011;27746;52.228;20.890;2023-12-20T07:24:42;18.00;;;10.38;;
42084;SDS011;27746;52.228;20.890;2023-12-20T07:27:09;19.00;;;9.98;;
42084;SDS011;27746;52.228;20.890;2023-12-20T07:29:35;16.90;;;9.57;;
42084;SDS011;27746;52.228;20.890;2023-12-20T07:32:04;18.23;;;10.35;;
42084;SDS011;27746;52.228;20.890;2023-12-20T07:34:31;14.73;;;10.13;;
42084;SDS011;27746;52.228;20.890;2023-12-20T07:36:58;13.93;;;8.50;;
42084;SDS011;27746;52.228;20.890;2023-12-20T07:39:25;15.30;;;9.05;;
42084;SDS011;27746;52.228;20.890;2023-12-20T07:41:52;15.55;;;9.27;;
42084;SDS011;27746;52.228;20.890;2023-12-20T07:44:18;16.77;;;9.68;;
42084;SDS011;27746;52.228;20.890;2023-12-20T07:46:45;17.58;;;10.50;;
42084;SDS011;27746;52.228;20.890;2023-12-20T07:49:15;15.57;;;9.45;;
42084;SDS011;27746;52.228;20.890;2023-12-20T07:51:42;13.82;;;9.13;;
42084;SDS011;27746;52.228;20.890;2023-12-20T07:54:08;14.77;;;10.00;;
42084;SDS011;27746;52.228;20.890;2023-12-20T07:56:35;15.20;;;9.13;;
42084;SDS011;27746;52.228;20.890;2023-12-20T07:59:02;18.08;;;8.90;;
42084;SDS011;27746;52.228;20.890;2023-12-20T08:01:29;13.20;;;8.13;;
42084;SDS011;27746;52.228;20.890;2023-12-20T08:03:56;14.30;;;8.40;;
42084;SDS011;27746;52.228;20.890;2023-12-20T08:06:25;15.00;;;9.35;;
42084;SDS011;27746;52.228;20.890;2023-12-20T08:08:51;15.68;;;8.93;;
42084;SDS011;27746;52.228;20.890;2023-12-20T08:11:18;12.25;;;7.53;;
42084;SDS011;27746;52.228;20.890;2023-12-20T08:13:45;14.13;;;8.35;;
42084;SDS011;27746;52.228;20.890;2023-12-20T08:16:12;14.50;;;8.02;;
42084;SDS011;27746;52.228;20.890;2023-12-20T08:18:40;13.98;;;8.75;;
42084;SDS011;27746;52.228;20.890;2023-12-20T08:21:07;14.35;;;8.65;;
42084;SDS011;27746;52.228;20.890;2023-12-20T08:23:35;13.85;;;7.97;;
42084;SDS011;27746;52.228;20.890;2023-12-20T08:26:03;12.40;;;7.72;;
42084;SDS011;27746;52.228;20.890;2023-12-20T08:28:31;14.98;;;7.65;;
42084;SDS011;27746;52.228;20.890;2023-12-20T08:30:58;15.35;;;8.48;;
42084;SDS011;27746;52.228;20.890;2023-12-20T08:33:24;12.77;;;7.60;;
42084;SDS011;27746;52.228;20.890;2023-12-20T08:35:51;12.93;;;7.65;;
42084;SDS011;27746;52.228;20.890;2023-12-20T08:38:18;11.73;;;7.13;;
42084;SDS011;27746;52.228;20.890;2023-12-20T08:40:46;12.48;;;7.43;;
42084;SDS011;27746;52.228;20.890;2023-12-20T08:43:14;12.20;;;7.35;;
42084;SDS011;27746;52.228;20.890;2023-12-20T08:45:41;13.88;;;8.00;;
42084;SDS011;27746;52.228;20.890;2023-12-20T08:48:07;21.02;;;8.98;;
42084;SDS011;27746;52.228;20.890;2023-12-20T08:50:34;14.20;;;8.05;;
42084;SDS011;27746;52.228;20.890;2023-12-20T08:53:01;12.88;;;7.50;;
42084;SDS011;27746;52.228;20.890;2023-12-20T08:55:28;11.13;;;6.90;;
42084;SDS011;27746;52.228;20.890;2023-12-20T08:57:57;12.48;;;7.25;;
42084;SDS011;27746;52.228;20.890;2023-12-20T09:00:24;15.07;;;7.80;;
42084;SDS011;27746;52.228;20.890;2023-12-20T09:02:52;13.63;;;7.97;;
42084;SDS011;27746;52.228;20.890;2023-12-20T09:05:20;10.52;;;6.80;;
42084;SDS011;27746;52.228;20.890;2023-12-20T09:07:47;12.35;;;7.22;;
42084;SDS011;27746;52.228;20.890;2023-12-20T09:10:14;13.40;;;8.07;;
42084;SDS011;27746;52.228;20.890;2023-12-20T09:12:41;12.55;;;7.70;;
42084;SDS011;27746;52.228;20.890;2023-12-20T09:15:09;11.93;;;6.85;;
42084;SDS011;27746;52.228;20.890;2023-12-20T09:17:35;11.52;;;6.72;;
42084;SDS011;27746;52.228;20.890;2023-12-20T09:20:03;13.13;;;6.85;;
42084;SDS011;27746;52.228;20.890;2023-12-20T09:22:31;14.98;;;7.30;;
42084;SDS011;27746;52.228;20.890;2023-12-20T09:24:58;12.60;;;7.65;;
42084;SDS011;27746;52.228;20.890;2023-12-20T09:27:26;17.80;;;7.18;;
42084;SDS011;27746;52.228;20.890;2023-12-20T09:29:53;11.90;;;7.03;;
42084;SDS011;27746;52.228;20.890;2023-12-20T09:32:21;12.05;;;7.45;;
42084;SDS011;27746;52.228;20.890;2023-12-20T09:34:48;13.13;;;7.20;;
42084;SDS011;27746;52.228;20.890;2023-12-20T09:37:15;12.45;;;7.13;;
42084;SDS011;27746;52.228;20.890;2023-12-20T09:39:42;12.38;;;6.63;;
42084;SDS011;27746;52.228;20.890;2023-12-20T09:42:09;12.48;;;6.90;;
42084;SDS011;27746;52.228;20.890;2023-12-20T09:44:38;13.02;;;7.07;;
42084;SDS011;27746;52.228;20.890;2023-12-20T09:47:07;12.23;;;7.15;;
42084;SDS011;27746;52.228;20.890;2023-12-20T09:49:36;12.48;;;7.18;;
42084;SDS011;27746;52.228;20.890;2023-12-20T09:52:04;10.00;;;6.70;;
42084;SDS011;27746;52.228;20.890;2023-12-20T09:54:32;12.48;;;7.47;;
42084;SDS011;27746;52.228;20.890;2023-12-20T09:56:59;12.73;;;7.50;;
42084;SDS011;27746;52.228;20.890;2023-12-20T09:59:25;9.88;;;6.72;;
42084;SDS011;27746;52.228;20.890;2023-12-20T10:01:52;12.98;;;7.13;;
42084;SDS011;27746;52.228;20.890;2023-12-20T10:04:21;11.63;;;6.45;;
42084;SDS011;27746;52.228;20.890;2023-12-20T10:06:50;11.77;;;6.55;;
42084;SDS011;27746;52.228;20.890;2023-12-20T10:09:17;12.07;;;7.03;;
42084;SDS011;27746;52.228;20.890;2023-12-20T10:11:44;10.15;;;6.53;;
42084;SDS011;27746;52.228;20.890;2023-12-20T10:14:11;12.10;;;7.20;;
42084;SDS011;27746;52.228;20.890;2023-12-20T10:16:39;10.57;;;7.03;;
42084;SDS011;27746;52.228;20.890;2023-12-20T10:19:07;12.35;;;7.18;;
42084;SDS011;27746;52.228;20.890;2023-12-20T10:21:34;10.55;;;6.28;;
42084;SDS011;27746;52.228;20.890;2023-12-20T10:24:05;11.02;;;6.75;;
42084;SDS011;27746;52.228;20.890;2023-12-20T10:26:32;13.20;;;7.00;;
42084;SDS011;27746;52.228;20.890;2023-12-20T10:29:00;14.40;;;6.85;;
42084;SDS011;27746;52.228;20.890;2023-12-20T10:31:29;11.10;;;6.55;;
42084;SDS011;27746;52.228;20.890;2023-12-20T10:33:57;14.55;;;6.95;;
42084;SDS011;27746;52.228;20.890;2023-12-20T10:36:25;12.38;;;6.70;;
42084;SDS011;27746;52.228;20.890;2023-12-20T10:38:53;11.27;;;6.93;;
42084;SDS011;27746;52.228;20.890;2023-12-20T10:41:24;10.95;;;6.60;;
42084;SDS011;27746;52.228;20.890;2023-12-20T10:43:54;11.35;;;6.22;;
42084;SDS011;27746;52.228;20.890;2023-12-20T10:46:24;10.45;;;6.28;;
42084;SDS011;27746;52.228;20.890;2023-12-20T10:48:53;9.98;;;6.60;;
42084;SDS011;27746;52.228;20.890;2023-12-20T10:51:20;9.77;;;5.70;;
42084;SDS011;27746;52.228;20.890;2023-12-20T10:53:49;11.70;;;6.50;;
42084;SDS011;27746;52.228;20.890;2023-12-20T10:56:17;12.05;;;5.97;;
42084;SDS011;27746;52.228;20.890;2023-12-20T10:58:47;9.85;;;6.05;;
42084;SDS011;27746;52.228;20.890;2023-12-20T11:01:15;10.52;;;6.82;;
42084;SDS011;27746;52.228;20.890;2023-12-20T11:03:44;10.20;;;6.68;;
42084;SDS011;27746;52.228;20.890;2023-12-20T11:06:19;10.38;;;6.43;;
42084;SDS011;27746;52.228;20.890;2023-12-20T11:08:55;10.07;;;6.18;;
42084;SDS011;27746;52.228;20.890;2023-12-20T11:11:35;10.13;;;6.63;;
42084;SDS011;27746;52.228;20.890;2023-12-20T11:14:11;12.68;;;6.47;;
42084;SDS011;27746;52.228;20.890;2023-12-20T11:16:43;11.95;;;6.88;;
42084;SDS011;27746;52.228;20.890;2023-12-20T11:19:10;10.30;;;6.15;;
42084;SDS011;27746;52.228;20.890;2023-12-20T11:21:39;10.30;;;6.07;;
42084;SDS011;27746;52.228;20.890;2023-12-20T11:24:06;10.65;;;5.85;;
42084;SDS011;27746;52.228;20.890;2023-12-20T11:26:32;11.32;;;6.00;;
42084;SDS011;27746;52.228;20.890;2023-12-20T11:31:59;9.35;;;5.18;;
42084;SDS011;27746;52.228;20.890;2023-12-20T11:34:26;10.20;;;5.63;;
42084;SDS011;27746;52.228;20.890;2023-12-20T11:36:57;9.70;;;5.97;;
42084;SDS011;27746;52.228;20.890;2023-12-20T11:39:25;12.27;;;6.63;;
42084;SDS011;27746;52.228;20.890;2023-12-20T11:41:54;10.93;;;6.47;;
42084;SDS011;27746;52.228;20.890;2023-12-20T11:44:22;11.82;;;6.53;;
42084;SDS011;27746;52.228;20.890;2023-12-20T11:46:52;11.65;;;7.20;;
42084;SDS011;27746;52.228;20.890;2023-12-20T11:49:22;13.50;;;7.85;;
42084;SDS011;27746;52.228;20.890;2023-12-20T11:51:54;10.82;;;6.60;;
42084;SDS011;27746;52.228;20.890;2023-12-20T11:54:21;11.00;;;7.18;;
42084;SDS011;27746;52.228;20.890;2023-12-20T11:56:48;11.98;;;7.05;;
42084;SDS011;27746;52.228;20.890;2023-12-20T11:59:14;10.80;;;6.70;;
42084;SDS011;27746;52.228;20.890;2023-12-20T12:01:47;10.77;;;6.53;;
42084;SDS011;27746;52.228;20.890;2023-12-20T12:04:16;11.35;;;7.05;;
42084;SDS011;27746;52.228;20.890;2023-12-20T12:06:43;10.82;;;7.28;;
42084;SDS011;27746;52.228;20.890;2023-12-20T12:09:10;11.45;;;7.75;;
42084;SDS011;27746;52.228;20.890;2023-12-20T12:11:37;13.90;;;7.97;;
42084;SDS011;27746;52.228;20.890;2023-12-20T12:14:04;13.95;;;7.40;;
42084;SDS011;27746;52.228;20.890;2023-12-20T12:16:31;12.82;;;7.60;;
42084;SDS011;27746;52.228;20.890;2023-12-20T12:18:58;14.63;;;7.68;;
42084;SDS011;27746;52.228;20.890;2023-12-20T12:21:27;11.98;;;7.65;;
42084;SDS011;27746;52.228;20.890;2023-12-20T12:23:53;11.98;;;7.22;;
42084;SDS011;27746;52.228;20.890;2023-12-20T12:26:31;12.65;;;7.47;;
42084;SDS011;27746;52.228;20.890;2023-12-20T12:28:58;11.00;;;6.97;;
42084;SDS011;27746;52.228;20.890;2023-12-20T12:31:25;11.20;;;6.53;;
42084;SDS011;27746;52.228;20.890;2023-12-20T12:33:52;12.48;;;6.55;;
42084;SDS011;27746;52.228;20.890;2023-12-20T12:36:19;11.80;;;6.72;;
42084;SDS011;27746;52.228;20.890;2023-12-20T12:38:47;12.38;;;7.07;;
42084;SDS011;27746;52.228;20.890;2023-12-20T12:41:14;11.98;;;6.75;;
42084;SDS011;27746;52.228;20.890;2023-12-20T12:43:41;12.95;;;7.90;;
42084;SDS011;27746;52.228;20.890;2023-12-20T12:46:08;16.33;;;8.70;;
42084;SDS011;27746;52.228;20.890;2023-12-20T12:48:35;13.38;;;8.15;;
42084;SDS011;27746;52.228;20.890;2023-12-20T12:51:02;14.35;;;8.60;;
42084;SDS011;27746;52.228;20.890;2023-12-20T12:53:29;15.07;;;9.27;;
42084;SDS011;27746;52.228;20.890;2023-12-20T12:55:57;15.02;;;8.75;;
42084;SDS011;27746;52.228;20.890;2023-12-20T12:58:24;15.23;;;8.73;;
42084;SDS011;27746;52.228;20.890;2023-12-20T13:00:51;14.10;;;8.20;;
42084;SDS011;27746;52.228;20.890;2023-12-20T13:03:17;14.55;;;8.30;;
42084;SDS011;27746;52.228;20.890;2023-12-20T13:05:44;13.80;;;8.27;;
42084;SDS011;27746;52.228;20.890;2023-12-20T13:08:12;15.75;;;8.77;;
42084;SDS011;27746;52.228;20.890;2023-12-20T13:10:39;13.60;;;7.75;;
42084;SDS011;27746;52.228;20.890;2023-12-20T13:13:07;13.68;;;8.38;;
42084;SDS011;27746;52.228;20.890;2023-12-20T13:15:34;15.90;;;8.07;;
42084;SDS011;27746;52.228;20.890;2023-12-20T13:18:00;15.57;;;7.43;;
42084;SDS011;27746;52.228;20.890;2023-12-20T13:20:27;12.18;;;8.00;;
42084;SDS011;27746;52.228;20.890;2023-12-20T13:22:54;15.55;;;7.80;;
42084;SDS011;27746;52.228;20.890;2023-12-20T13:25:21;14.13;;;7.65;;
42084;SDS011;27746;52.228;20.890;2023-12-20T13:27:48;10.77;;;6.90;;
42084;SDS011;27746;52.228;20.890;2023-12-20T13:30:17;12.23;;;7.55;;
42084;SDS011;27746;52.228;20.890;2023-12-20T13:32:43;11.02;;;7.53;;
42084;SDS011;27746;52.228;20.890;2023-12-20T13:35:10;13.05;;;7.90;;
42084;SDS011;27746;52.228;20.890;2023-12-20T13:37:37;15.57;;;7.00;;
42084;SDS011;27746;52.228;20.890;2023-12-20T13:40:05;12.60;;;8.20;;
42084;SDS011;27746;52.228;20.890;2023-12-20T13:42:33;15.40;;;8.77;;
42084;SDS011;27746;52.228;20.890;2023-12-20T13:45:03;13.95;;;7.45;;
42084;SDS011;27746;52.228;20.890;2023-12-20T13:47:32;14.70;;;8.10;;
42084;SDS011;27746;52.228;20.890;2023-12-20T13:49:59;16.67;;;8.15;;
42084;SDS011;27746;52.228;20.890;2023-12-20T13:52:26;11.25;;;6.95;;
42084;SDS011;27746;52.228;20.890;2023-12-20T13:54:52;11.40;;;6.88;;
42084;SDS011;27746;52.228;20.890;2023-12-20T13:57:19;11.73;;;6.93;;
42084;SDS011;27746;52.228;20.890;2023-12-20T13:59:46;12.52;;;6.82;;
42084;SDS011;27746;52.228;20.890;2023-12-20T14:02:13;11.25;;;6.30;;
42084;SDS011;27746;52.228;20.890;2023-12-20T14:04:42;10.57;;;6.90;;
42084;SDS011;27746;52.228;20.890;2023-12-20T14:07:09;10.38;;;6.38;;
42084;SDS011;27746;52.228;20.890;2023-12-20T14:09:36;11.52;;;6.57;;
42084;SDS011;27746;52.228;20.890;2023-12-20T14:12:04;12.48;;;6.60;;
42084;SDS011;27746;52.228;20.890;2023-12-20T14:14:31;12.35;;;6.50;;
42084;SDS011;27746;52.228;20.890;2023-12-20T14:16:58;9.40;;;5.95;;
42084;SDS011;27746;52.228;20.890;2023-12-20T14:19:24;11.45;;;7.00;;
42084;SDS011;27746;52.228;20.890;2023-12-20T14:21:53;14.23;;;7.07;;
42084;SDS011;27746;52.228;20.890;2023-12-20T14:24:20;10.35;;;5.75;;